createdAt,value
2022-10-23T00:00:35.710Z,100989.87
2022-10-23T00:03:38.842Z,100984.31
2022-10-23T00:06:43.164Z,100988.00
2022-10-23T00:09:46.009Z,100989.09
2022-10-23T00:12:49.436Z,100988.28
2022-10-23T00:18:59.770Z,100994.69
2022-10-23T00:22:02.673Z,101007.59
2022-10-23T00:25:06.528Z,101000.19
2022-10-23T00:28:09.359Z,101000.69
2022-10-23T00:31:13.173Z,100996.94
2022-10-23T00:34:16.135Z,101008.66
2022-10-23T00:37:18.804Z,101021.28
2022-10-23T00:40:21.623Z,101018.62
2022-10-23T00:43:27.870Z,101018.00
2022-10-23T00:46:31.264Z,101017.66
2022-10-23T00:49:34.608Z,101029.87
2022-10-23T00:52:42.453Z,101027.88
2022-10-23T00:55:47.347Z,101041.28
2022-10-23T00:58:50.231Z,101042.50
2022-10-23T01:01:53.234Z,101029.19
2022-10-23T01:04:56.275Z,101031.94
2022-10-23T01:08:18.031Z,101021.31
2022-10-23T01:11:30.730Z,101015.25
2022-10-23T01:14:47.952Z,101024.78
2022-10-23T01:18:13.001Z,101033.03
2022-10-23T01:22:01.903Z,101028.69
2022-10-23T01:25:23.873Z,101035.78
2022-10-23T01:28:32.601Z,101023.19
2022-10-23T01:32:04.253Z,101033.84
2022-10-23T01:35:24.570Z,101023.06
2022-10-23T01:38:34.050Z,101034.97
2022-10-23T01:41:42.666Z,101033.84
2022-10-23T01:45:09.824Z,101025.59
2022-10-23T01:48:15.763Z,101027.97
2022-10-23T01:51:22.027Z,101037.81
2022-10-23T01:54:31.509Z,101036.63
2022-10-23T01:57:36.189Z,101035.41
2022-10-23T02:00:40.727Z,101040.97
2022-10-23T02:03:45.075Z,101044.16
2022-10-23T02:06:47.867Z,101046.91
2022-10-23T02:09:51.254Z,101029.97
2022-10-23T02:13:20.458Z,101029.59
2022-10-23T02:16:46.431Z,101027.66
2022-10-23T02:20:02.529Z,101037.50
2022-10-23T02:23:09.994Z,101036.34
2022-10-23T02:26:42.503Z,101034.38
2022-10-23T02:30:02.670Z,101033.63
2022-10-23T02:33:07.823Z,101035.97
2022-10-23T02:36:11.566Z,101041.03
2022-10-23T02:39:14.247Z,101043.72
2022-10-23T02:42:28.825Z,101040.91
2022-10-23T02:45:51.679Z,101055.44
2022-10-23T02:49:21.726Z,101054.72
2022-10-23T02:52:31.996Z,101043.16
2022-10-23T02:55:49.478Z,101057.47
2022-10-23T02:59:04.707Z,101064.91
2022-10-23T03:05:42.149Z,101064.84
2022-10-23T03:08:59.161Z,101071.94
2022-10-23T03:12:01.878Z,101071.94
2022-10-23T03:15:08.969Z,101071.22
2022-10-23T03:18:11.574Z,101078.59
2022-10-23T03:21:15.077Z,101078.97
2022-10-23T03:24:17.642Z,101083.25
2022-10-23T03:27:20.620Z,101086.00
2022-10-23T03:30:23.364Z,101088.72
2022-10-23T03:33:26.725Z,101086.00
2022-10-23T03:36:29.328Z,101083.63
2022-10-23T03:39:32.331Z,101083.12
2022-10-23T03:42:34.988Z,101096.25
2022-10-23T03:45:38.608Z,101093.50
2022-10-23T03:48:42.121Z,101114.69
2022-10-23T03:51:51.871Z,101101.34
2022-10-23T03:54:56.224Z,101119.03
2022-10-23T03:57:59.113Z,101112.75
2022-10-23T04:01:01.883Z,101113.56
2022-10-23T04:04:04.823Z,101104.13
2022-10-23T04:07:07.468Z,101109.56
2022-10-23T04:10:10.697Z,101116.72
2022-10-23T04:13:13.235Z,101117.53
2022-10-23T04:16:16.238Z,101115.63
2022-10-23T04:19:20.004Z,101110.41
2022-10-23T04:22:25.939Z,101123.06
2022-10-23T04:25:30.211Z,101126.19
2022-10-23T04:28:33.471Z,101134.00
2022-10-23T04:31:36.055Z,101131.25
2022-10-23T04:34:38.920Z,101138.72
2022-10-23T04:37:42.103Z,101130.03
2022-10-23T04:40:45.263Z,101127.50
2022-10-23T04:43:48.370Z,101121.34
2022-10-23T04:46:51.325Z,101126.06
2022-10-23T04:49:53.961Z,101124.87
2022-10-23T04:52:58.008Z,101122.88
2022-10-23T04:56:01.326Z,101118.09
2022-10-23T05:02:13.795Z,101127.81
2022-10-23T05:05:17.708Z,101113.28
2022-10-23T05:08:23.219Z,101128.59
2022-10-23T05:11:27.432Z,101114.00
2022-10-23T05:14:30.183Z,101125.78
2022-10-23T05:17:37.023Z,101130.41
2022-10-23T05:20:40.371Z,101136.31
2022-10-23T05:23:46.154Z,101135.91
2022-10-23T05:26:51.686Z,101142.28
2022-10-23T05:29:55.061Z,101140.69
2022-10-23T05:32:59.405Z,101148.63
2022-10-23T05:36:03.174Z,101162.37
2022-10-23T05:39:06.418Z,101165.19
2022-10-23T05:42:09.442Z,101174.25
2022-10-23T05:45:13.160Z,101172.22
2022-10-23T05:48:30.157Z,101165.19
2022-10-23T05:51:38.981Z,101170.62
2022-10-23T05:54:42.517Z,101158.19
2022-10-23T05:57:47.375Z,101159.56
2022-10-23T06:00:50.680Z,101156.44
2022-10-23T06:03:55.089Z,101162.81
2022-10-23T06:06:59.053Z,101173.53
2022-10-23T06:10:02.067Z,101169.66
2022-10-23T06:13:05.167Z,101179.31
2022-10-23T06:16:20.102Z,101182.47
2022-10-23T06:19:22.807Z,101177.69
2022-10-23T06:22:27.902Z,101177.62
2022-10-23T06:25:31.163Z,101172.84
2022-10-23T06:28:34.510Z,101177.91
2022-10-23T06:31:37.135Z,101166.56
2022-10-23T06:34:40.162Z,101172.91
2022-10-23T06:37:43.372Z,101173.81
2022-10-23T06:40:55.451Z,101185.69
2022-10-23T06:43:58.391Z,101174.78
2022-10-23T06:47:02.247Z,101186.66
2022-10-23T06:50:15.343Z,101186.66
2022-10-23T06:53:19.403Z,101193.88
2022-10-23T06:56:22.944Z,101182.06
2022-10-23T06:59:25.983Z,101185.03
2022-10-23T07:02:28.817Z,101188.94
2022-10-23T07:05:33.847Z,101182.75
2022-10-23T07:08:38.084Z,101196.63
2022-10-23T07:11:42.328Z,101191.12
2022-10-23T07:14:44.908Z,101194.44
2022-10-23T07:17:48.017Z,101193.56
2022-10-23T07:20:58.220Z,101199.50
2022-10-23T07:24:01.903Z,101206.66
2022-10-23T07:27:05.080Z,101206.78
2022-10-23T07:30:08.695Z,101212.81
2022-10-23T07:33:13.847Z,101206.69
2022-10-23T07:36:17.997Z,101208.38
2022-10-23T07:39:22.475Z,101207.03
2022-10-23T07:42:26.327Z,101201.28
2022-10-23T07:45:29.020Z,101199.06
2022-10-23T07:48:32.374Z,101201.91
2022-10-23T07:51:35.075Z,101205.12
2022-10-23T07:54:39.057Z,101204.53
2022-10-23T07:57:43.006Z,101206.56
2022-10-23T08:00:52.125Z,101213.00
2022-10-23T08:03:55.286Z,101199.97
2022-10-23T08:06:58.654Z,101209.56
2022-10-23T08:10:01.664Z,101209.69
2022-10-23T08:13:04.881Z,101209.00
2022-10-23T08:16:10.711Z,101213.37
2022-10-23T08:19:17.075Z,101214.28
2022-10-23T08:22:20.086Z,101210.50
2022-10-23T08:25:24.887Z,101208.22
2022-10-23T08:28:29.456Z,101203.97
2022-10-23T08:31:32.875Z,101195.44
2022-10-23T08:34:37.928Z,101205.00
2022-10-23T08:37:40.719Z,101199.50
2022-10-23T08:40:46.290Z,101197.59
2022-10-23T08:44:20.141Z,101200.06
2022-10-23T08:47:41.240Z,101202.06
2022-10-23T08:50:51.089Z,101206.03
2022-10-23T08:54:06.460Z,101203.75
2022-10-23T08:57:15.637Z,101215.66
2022-10-23T09:00:18.788Z,101211.81
2022-10-23T09:03:21.935Z,101211.78
2022-10-23T09:06:41.259Z,101214.22
2022-10-23T09:10:22.839Z,101226.06
2022-10-23T09:13:43.857Z,101229.97
2022-10-23T09:17:18.733Z,101232.41
2022-10-23T09:20:25.967Z,101226.50
2022-10-23T09:23:28.667Z,101230.03
2022-10-23T09:26:31.508Z,101237.19
2022-10-23T09:29:38.449Z,101232.03
2022-10-23T09:32:43.563Z,101224.47
2022-10-23T09:35:59.399Z,101230.03
2022-10-23T09:39:02.283Z,101246.63
2022-10-23T09:42:26.023Z,101248.97
2022-10-23T09:45:34.884Z,101241.84
2022-10-23T09:48:42.344Z,101221.19
2022-10-23T09:52:02.767Z,101247.75
2022-10-23T09:55:26.052Z,101246.13
2022-10-23T09:58:35.247Z,101243.75
2022-10-23T10:01:48.054Z,101248.16
2022-10-23T10:04:53.243Z,101240.22
2022-10-23T10:08:07.344Z,101242.22
2022-10-23T10:11:15.955Z,101243.47
2022-10-23T10:14:39.826Z,101237.56
2022-10-23T10:17:54.593Z,101232.75
2022-10-23T10:21:21.240Z,101235.44
2022-10-23T10:24:34.556Z,101237.13
2022-10-23T10:27:58.765Z,101234.03
2022-10-23T10:31:23.602Z,101237.63
2022-10-23T10:34:47.472Z,101228.19
2022-10-23T10:38:15.045Z,101229.41
2022-10-23T10:41:36.690Z,101209.31
2022-10-23T10:45:17.454Z,101208.19
2022-10-23T10:48:31.367Z,101204.28
2022-10-23T10:51:40.052Z,101210.63
2022-10-23T10:54:58.962Z,101201.53
2022-10-23T10:58:18.315Z,101200.34
2022-10-23T11:01:41.013Z,101198.75
2022-10-23T11:04:51.240Z,101191.66
2022-10-23T11:08:22.422Z,101183.72
2022-10-23T11:11:45.646Z,101176.22
2022-10-23T11:14:50.009Z,101168.72
2022-10-23T11:17:59.500Z,101165.94
2022-10-23T11:21:43.506Z,101167.12
2022-10-23T11:25:13.692Z,101165.97
2022-10-23T11:28:40.921Z,101168.72
2022-10-23T11:32:21.555Z,101167.16
2022-10-23T11:35:54.788Z,101169.91
2022-10-23T11:39:15.791Z,101162.00
2022-10-23T11:42:32.034Z,101155.28
2022-10-23T11:45:37.694Z,101145.78
2022-10-23T11:48:43.684Z,101154.47
2022-10-23T11:51:46.563Z,101134.28
2022-10-23T11:54:49.187Z,101146.53
2022-10-23T11:58:07.351Z,101141.81
2022-10-23T12:01:28.425Z,101144.19
2022-10-23T12:04:52.766Z,101125.56
2022-10-23T12:08:00.860Z,101128.75
2022-10-23T12:11:03.956Z,101128.37
2022-10-23T12:14:29.010Z,101123.62
2022-10-23T12:17:36.940Z,101120.84
2022-10-23T12:20:50.122Z,101110.56
2022-10-23T12:23:59.707Z,101121.22
2022-10-23T12:27:08.997Z,101116.91
2022-10-23T12:30:24.734Z,101119.66
2022-10-23T12:33:53.479Z,101107.78
2022-10-23T12:37:08.558Z,101122.78
2022-10-23T12:40:12.139Z,101121.97
2022-10-23T12:43:26.242Z,101111.28
2022-10-23T12:46:35.581Z,101115.63
2022-10-23T12:49:48.961Z,101119.25
2022-10-23T12:52:54.485Z,101111.69
2022-10-23T12:59:16.377Z,101105.34
2022-10-23T13:02:30.801Z,101086.41
2022-10-23T13:05:33.613Z,101088.34
2022-10-23T13:08:43.215Z,101071.34
2022-10-23T13:11:47.860Z,101073.31
2022-10-23T13:15:06.583Z,101077.59
2022-10-23T13:18:11.359Z,101082.72
2022-10-23T13:21:21.227Z,101072.44
2022-10-23T13:24:26.628Z,101071.25
2022-10-23T13:27:34.497Z,101082.28
2022-10-23T13:30:43.489Z,101073.97
2022-10-23T13:33:52.630Z,101069.62
2022-10-23T13:36:58.681Z,101068.06
2022-10-23T13:40:10.309Z,101067.22
2022-10-23T13:43:16.482Z,101051.44
2022-10-23T13:46:27.181Z,101051.44
2022-10-23T13:49:29.778Z,101053.78
2022-10-23T13:52:32.701Z,101064.03
2022-10-23T13:55:35.250Z,101061.28
2022-10-23T13:58:38.692Z,101046.66
2022-10-23T14:01:42.817Z,101041.13
2022-10-23T14:04:47.255Z,101048.22
2022-10-23T14:07:49.795Z,101048.59
2022-10-23T14:10:52.679Z,101047.37
2022-10-23T14:13:55.484Z,101033.19
2022-10-23T14:16:58.538Z,101024.50
2022-10-23T14:20:03.066Z,101015.03
2022-10-23T14:23:08.271Z,101011.47
2022-10-23T14:26:14.464Z,101030.00
2022-10-23T14:29:22.824Z,101017.00
2022-10-23T14:32:26.606Z,101018.16
2022-10-23T14:35:29.591Z,101005.94
2022-10-23T14:38:32.151Z,101005.53
2022-10-23T14:41:35.141Z,100994.47
2022-10-23T14:47:47.054Z,100993.66
2022-10-23T14:50:50.088Z,101002.34
2022-10-23T14:53:59.528Z,101005.47
2022-10-23T14:57:03.308Z,101000.72
2022-10-23T15:00:07.356Z,101006.25
2022-10-23T15:03:09.978Z,101018.06
2022-10-23T15:06:17.479Z,101015.75
2022-10-23T15:09:21.228Z,101010.16
2022-10-23T15:12:24.599Z,101007.75
2022-10-23T15:15:27.148Z,101005.38
2022-10-23T15:18:30.126Z,101010.78
2022-10-23T15:21:32.853Z,101010.78
2022-10-23T15:24:36.144Z,101000.47
2022-10-23T15:27:38.734Z,100985.44
2022-10-23T15:30:44.090Z,100980.69
2022-10-23T15:33:46.874Z,100975.94
2022-10-23T15:36:51.143Z,100983.78
2022-10-23T15:39:56.165Z,100958.47
2022-10-23T15:43:01.532Z,100969.16
2022-10-23T15:46:04.092Z,100965.97
2022-10-23T15:49:08.591Z,100960.06
2022-10-23T15:52:11.500Z,100950.16
2022-10-23T15:55:14.972Z,100959.97
2022-10-23T15:58:17.770Z,100966.28
2022-10-23T16:01:20.951Z,100959.53
2022-10-23T16:04:24.271Z,100959.50
2022-10-23T16:07:27.040Z,100967.75
2022-10-23T16:10:30.047Z,100955.53
2022-10-23T16:13:32.879Z,100956.69
2022-10-23T16:16:35.862Z,100959.44
2022-10-23T16:19:38.619Z,100970.50
2022-10-23T16:22:44.850Z,100968.91
2022-10-23T16:25:47.830Z,100960.22
2022-10-23T16:28:58.018Z,100966.91
2022-10-23T16:32:00.882Z,100959.00
2022-10-23T16:35:04.196Z,100964.47
2022-10-23T16:38:12.904Z,100953.81
2022-10-23T16:41:16.103Z,100963.66
2022-10-23T16:44:19.064Z,100959.69
2022-10-23T16:47:22.840Z,100962.03
2022-10-23T16:50:25.772Z,100967.56
2022-10-23T16:53:29.043Z,100962.81
2022-10-23T16:56:32.113Z,100971.12
2022-10-23T16:59:35.306Z,100973.88
2022-10-23T17:02:38.329Z,100960.41
2022-10-23T17:05:41.400Z,100964.31
2022-10-23T17:08:44.789Z,100973.00
2022-10-23T17:11:48.148Z,100976.19
2022-10-23T17:14:51.154Z,100977.34
2022-10-23T17:17:54.307Z,100974.59
2022-10-23T17:20:57.638Z,100976.94
2022-10-23T17:27:08.532Z,100974.53
2022-10-23T17:30:13.056Z,100973.69
2022-10-23T17:33:18.146Z,100969.72
2022-10-23T17:36:21.888Z,100966.53
2022-10-23T17:39:29.288Z,100966.53
2022-10-23T17:42:32.379Z,100972.50
2022-10-23T17:45:35.733Z,100963.75
2022-10-23T17:48:43.459Z,100952.69
2022-10-23T17:51:46.401Z,100953.81
2022-10-23T17:54:52.450Z,100956.56
2022-10-23T17:57:56.213Z,100947.47
2022-10-23T18:01:08.862Z,100966.41
2022-10-23T18:04:12.559Z,100958.09
2022-10-23T18:07:16.022Z,100950.62
2022-10-23T18:10:19.754Z,100962.03
2022-10-23T18:13:22.595Z,100963.19
2022-10-23T18:16:26.091Z,100959.63
2022-10-23T18:19:29.766Z,100963.97
2022-10-23T18:22:33.280Z,100945.75
2022-10-23T18:25:35.923Z,100947.41
2022-10-23T18:28:39.395Z,100954.50
2022-10-23T18:31:42.324Z,100946.22
2022-10-23T18:34:45.539Z,100945.34
2022-10-23T18:37:48.591Z,100946.09
2022-10-23T18:40:55.231Z,100941.69
2022-10-23T18:43:58.191Z,100956.19
2022-10-23T18:47:01.476Z,100948.22
2022-10-23T18:50:04.951Z,100937.16
2022-10-23T18:53:08.151Z,100927.19
2022-10-23T18:56:11.067Z,100937.44
2022-10-23T18:59:18.292Z,100939.38
2022-10-23T19:02:21.778Z,100949.13
2022-10-23T19:05:26.153Z,100947.50
2022-10-23T19:08:29.207Z,100947.06
2022-10-23T19:11:32.394Z,100926.88
2022-10-23T19:14:35.315Z,100920.50
2022-10-23T19:17:38.659Z,100930.03
2022-10-23T19:20:42.969Z,100931.56
2022-10-23T19:23:46.535Z,100932.25
2022-10-23T19:26:51.058Z,100921.19
2022-10-23T19:29:55.899Z,100923.91
2022-10-23T19:32:59.760Z,100926.22
2022-10-23T19:36:05.299Z,100928.94
2022-10-23T19:39:08.370Z,100933.59
2022-10-23T19:42:12.237Z,100935.91
2022-10-23T19:45:15.744Z,100938.16
2022-10-23T19:48:19.010Z,100923.56
2022-10-23T19:51:21.869Z,100928.66
2022-10-23T19:54:25.423Z,100938.00
2022-10-23T19:57:30.450Z,100943.50
2022-10-23T20:00:33.637Z,100944.31
2022-10-23T20:03:37.322Z,100945.09
2022-10-23T20:06:40.231Z,100946.69
2022-10-23T20:09:43.172Z,100941.91
2022-10-23T20:12:56.374Z,100944.34
2022-10-23T20:16:00.879Z,100953.03
2022-10-23T20:19:07.164Z,100949.53
2022-10-23T20:22:10.727Z,100942.03
2022-10-23T20:25:13.842Z,100940.44
2022-10-23T20:28:17.151Z,100933.66
2022-10-23T20:31:21.801Z,100936.00
2022-10-23T20:34:24.935Z,100941.09
2022-10-23T20:37:27.695Z,100936.31
2022-10-23T20:40:30.738Z,100939.81
2022-10-23T20:43:34.010Z,100926.06
2022-10-23T20:46:39.419Z,100920.50
2022-10-23T20:49:41.966Z,100930.69
2022-10-23T20:52:45.625Z,100942.06
2022-10-23T20:55:48.235Z,100927.47
2022-10-23T20:58:51.386Z,100927.53
2022-10-23T21:01:55.314Z,100929.13
2022-10-23T21:04:59.004Z,100932.34
2022-10-23T21:08:01.555Z,100933.56
2022-10-23T21:11:04.996Z,100936.75
2022-10-23T21:14:08.409Z,100918.22
2022-10-23T21:17:16.538Z,100925.75
2022-10-23T21:20:19.249Z,100911.03
2022-10-23T21:23:22.182Z,100925.25
2022-10-23T21:26:26.057Z,100931.91
2022-10-23T21:29:28.946Z,100923.25
2022-10-23T21:32:31.536Z,100918.13
2022-10-23T21:35:34.654Z,100922.03
2022-10-23T21:38:37.346Z,100922.78
2022-10-23T21:41:40.255Z,100926.66
2022-10-23T21:44:42.936Z,100920.44
2022-10-23T21:47:46.296Z,100915.00
2022-10-23T21:53:57.606Z,100929.22
2022-10-23T21:57:00.203Z,100916.28
2022-10-23T22:00:05.601Z,100923.06
2022-10-23T22:03:15.082Z,100926.22
2022-10-23T22:06:24.499Z,100916.81
2022-10-23T22:09:27.055Z,100915.28
2022-10-23T22:12:29.907Z,100914.53
2022-10-23T22:15:32.464Z,100907.06
2022-10-23T22:18:36.434Z,100902.00
2022-10-23T22:21:39.682Z,100911.47
2022-10-23T22:24:42.505Z,100910.28
2022-10-23T22:27:45.328Z,100908.37
2022-10-23T22:30:48.612Z,100907.69
2022-10-23T22:33:52.367Z,100909.69
2022-10-23T22:36:55.555Z,100904.22
2022-10-23T22:39:58.159Z,100901.50
2022-10-23T22:43:01.658Z,100896.00
2022-10-23T22:46:08.619Z,100895.66
2022-10-23T22:49:11.711Z,100899.97
2022-10-23T22:52:14.288Z,100894.13
2022-10-23T22:55:17.211Z,100897.28
2022-10-23T22:58:19.912Z,100878.72
2022-10-23T23:01:25.314Z,100881.94
2022-10-23T23:04:43.303Z,100876.88
2022-10-23T23:07:46.401Z,100881.56
2022-10-23T23:10:53.934Z,100872.94
2022-10-23T23:13:56.833Z,100862.31
2022-10-23T23:16:59.515Z,100873.34
2022-10-23T23:20:02.465Z,100857.56
2022-10-23T23:23:05.097Z,100873.78
2022-10-23T23:26:08.463Z,100879.69
2022-10-23T23:29:11.254Z,100886.00
2022-10-23T23:32:14.164Z,100868.28
2022-10-23T23:35:17.481Z,100876.56
2022-10-23T23:38:20.365Z,100876.94
2022-10-23T23:41:23.866Z,100873.38
2022-10-23T23:44:26.940Z,100880.50
2022-10-23T23:47:29.719Z,100877.75
2022-10-23T23:50:32.663Z,100882.84
2022-10-23T23:53:35.258Z,100872.19
2022-10-23T23:56:38.416Z,100878.84
2022-10-23T23:59:41.775Z,100878.81
